Time;durP1;ratioP1;P1;durP2;ratioP2;P2;SDS_P1;SDS_P2;PMS_P1;PMS_P2;Temp;Humidity;BMP_temperature;BMP_pressure;BME280_temperature;BME280_humidity;BME280_pressure;Samples;Min_cycle;Max_cycle;Signal;HPM_P1;HPM_P2
2023/10/03 00:00:55;;;;;;;34.40;20.27;;;20.00;93.10;;;;;;5025029;28;20061;-52
2023/10/03 00:03:21;;;;;;;44.20;21.17;;;20.00;93.10;;;;;;5057622;28;20056;-52
2023/10/03 00:05:48;;;;;;;43.33;19.75;;;20.00;93.10;;;;;;5040984;28;20057;-52
2023/10/03 00:08:13;;;;;;;44.55;19.90;;;20.00;93.10;;;;;;5026562;28;20030;-51
2023/10/03 00:10:39;;;;;;;45.60;19.15;;;20.00;93.20;;;;;;5024859;28;20041;-52
2023/10/03 00:13:08;;;;;;;37.90;19.30;;;20.00;93.20;;;;;;5026029;28;20037;-52
2023/10/03 00:15:34;;;;;;;36.75;19.17;;;19.90;93.10;;;;;;5026098;28;20497;-52
2023/10/03 00:18:00;;;;;;;28.48;17.40;;;19.90;93.20;;;;;;5024618;28;20041;-52
2023/10/03 00:20:26;;;;;;;34.58;18.55;;;19.90;93.20;;;;;;5026128;28;20026;-52
2023/10/03 00:22:51;;;;;;;34.55;19.20;;;19.90;93.30;;;;;;5026010;28;20026;-52
2023/10/03 00:25:24;;;;;;;37.67;18.83;;;19.90;93.30;;;;;;5041121;28;20088;-52
2023/10/03 00:27:55;;;;;;;34.40;19.05;;;19.90;93.30;;;;;;5025855;28;20049;-52
2023/10/03 00:30:24;;;;;;;36.05;18.50;;;19.90;93.30;;;;;;5042343;28;20030;-52
2023/10/03 00:32:53;;;;;;;42.97;19.33;;;19.90;93.30;;;;;;5029687;28;20034;-52
2023/10/03 00:35:22;;;;;;;35.22;19.25;;;19.90;93.40;;;;;;5029812;28;20037;-52
2023/10/03 00:37:50;;;;;;;32.75;18.70;;;19.80;93.40;;;;;;5028684;28;20038;-52
2023/10/03 00:42:52;;;;;;;35.57;18.90;;;19.80;93.50;;;;;;5043864;28;20041;-52
2023/10/03 00:45:25;;;;;;;35.60;18.77;;;19.80;93.50;;;;;;5044665;28;20033;-52
2023/10/03 00:47:53;;;;;;;32.97;17.83;;;19.70;93.50;;;;;;5029417;28;20046;-52
2023/10/03 00:50:20;;;;;;;33.33;18.35;;;19.70;93.50;;;;;;5028040;28;20036;-52
2023/10/03 00:52:55;;;;;;;33.92;19.50;;;19.70;93.50;;;;;;5029295;28;20057;-52
2023/10/03 00:55:22;;;;;;;32.53;19.05;;;19.80;93.60;;;;;;5028047;28;20105;-52
2023/10/03 00:57:47;;;;;;;29.33;17.35;;;19.70;93.50;;;;;;5028146;28;20064;-52
2023/10/03 01:00:17;;;;;;;30.60;17.60;;;19.70;93.60;;;;;;5029359;28;20034;-52
2023/10/03 01:02:50;;;;;;;33.22;19.25;;;19.70;93.60;;;;;;5027630;28;20124;-52
2023/10/03 01:05:16;;;;;;;32.67;17.95;;;19.70;93.60;;;;;;5027816;28;20034;-52
2023/10/03 01:07:45;;;;;;;34.67;18.40;;;19.60;93.60;;;;;;5027930;28;20042;-52
2023/10/03 01:10:12;;;;;;;29.15;17.17;;;19.60;93.60;;;;;;5044198;28;20052;-52
2023/10/03 01:12:38;;;;;;;25.52;17.05;;;19.60;93.60;;;;;;5029011;28;20089;-52
2023/10/03 01:15:10;;;;;;;31.23;17.85;;;19.60;93.60;;;;;;5044046;28;20038;-52
2023/10/03 01:17:37;;;;;;;33.13;17.88;;;19.60;93.60;;;;;;5028876;28;20030;-52
2023/10/03 01:20:08;;;;;;;33.08;18.67;;;19.60;93.60;;;;;;5028720;28;20034;-52
2023/10/03 01:22:37;;;;;;;30.83;18.65;;;19.60;93.70;;;;;;5028920;28;20034;-52
2023/10/03 01:25:06;;;;;;;35.15;18.45;;;19.60;93.70;;;;;;5028735;28;20060;-52
2023/10/03 01:27:32;;;;;;;31.67;18.35;;;19.50;93.70;;;;;;5028560;28;20046;-52
2023/10/03 01:29:57;;;;;;;33.75;18.52;;;19.50;93.70;;;;;;5027697;28;20094;-52
2023/10/03 01:32:23;;;;;;;31.95;17.50;;;19.50;93.80;;;;;;5028860;28;20042;-52
2023/10/03 01:34:49;;;;;;;35.05;17.85;;;19.50;93.80;;;;;;5043734;28;20042;-52
2023/10/03 01:37:14;;;;;;;29.95;18.08;;;19.50;93.80;;;;;;5027308;28;20061;-52
2023/10/03 01:39:40;;;;;;;30.17;18.88;;;19.50;93.80;;;;;;5028826;28;20030;-52
2023/10/03 01:42:07;;;;;;;33.03;18.17;;;19.50;93.80;;;;;;5028003;28;20105;-52
2023/10/03 01:44:32;;;;;;;30.27;17.50;;;19.50;94.10;;;;;;5027699;28;20030;-52
2023/10/03 01:46:58;;;;;;;30.10;18.05;;;19.40;93.80;;;;;;5028702;28;20053;-52
2023/10/03 01:49:24;;;;;;;29.05;17.90;;;19.40;93.80;;;;;;5027232;28;20080;-52
2023/10/03 01:51:50;;;;;;;31.33;17.80;;;19.40;93.80;;;;;;5043538;28;20030;-52
2023/10/03 01:54:15;;;;;;;25.70;17.23;;;19.40;93.80;;;;;;5028519;28;20028;-52
2023/10/03 01:56:41;;;;;;;26.75;17.02;;;19.40;93.80;;;;;;5043702;28;20045;-52
2023/10/03 01:59:07;;;;;;;30.42;17.60;;;19.40;93.80;;;;;;5026887;28;20032;-52
2023/10/03 02:01:37;;;;;;;26.50;17.00;;;19.40;93.80;;;;;;5026750;28;20030;-52
2023/10/03 02:04:03;;;;;;;25.98;16.40;;;19.40;93.80;;;;;;5026922;28;20033;-52
2023/10/03 02:06:29;;;;;;;27.27;17.33;;;19.30;93.90;;;;;;5028103;28;20085;-52
2023/10/03 02:08:56;;;;;;;26.77;17.00;;;19.30;93.90;;;;;;5043191;28;20026;-52
2023/10/03 02:11:26;;;;;;;29.70;17.35;;;19.30;93.90;;;;;;5027845;28;20036;-52
2023/10/03 02:13:52;;;;;;;32.47;18.00;;;19.30;93.90;;;;;;5028093;28;20042;-52
2023/10/03 02:16:20;;;;;;;27.42;17.25;;;19.30;93.80;;;;;;5027931;28;20026;-52
2023/10/03 02:18:45;;;;;;;26.33;17.50;;;19.30;93.80;;;;;;5027864;28;20026;-52
2023/10/03 02:21:16;;;;;;;23.52;16.20;;;19.30;93.90;;;;;;5026560;28;20056;-52
2023/10/03 02:23:42;;;;;;;29.90;17.70;;;19.30;93.90;;;;;;5026521;28;20026;-52
2023/10/03 02:26:10;;;;;;;30.80;17.60;;;19.20;93.90;;;;;;5042723;28;20030;-52
2023/10/03 02:28:36;;;;;;;29.05;16.42;;;19.20;93.90;;;;;;5042900;28;20040;-52
2023/10/03 02:31:07;;;;;;;28.23;17.40;;;19.20;93.90;;;;;;5027336;28;20034;-52
2023/10/03 02:33:35;;;;;;;29.05;18.58;;;19.20;93.90;;;;;;5042093;28;20053;-52
2023/10/03 02:36:01;;;;;;;26.92;16.88;;;19.20;93.90;;;;;;5026373;28;20113;-52
2023/10/03 02:38:30;;;;;;;28.55;16.73;;;19.20;93.90;;;;;;5027527;28;20022;-52
2023/10/03 02:40:59;;;;;;;25.23;16.55;;;19.20;93.90;;;;;;5026138;28;20466;-51
2023/10/03 02:43:26;;;;;;;24.20;16.30;;;19.10;93.90;;;;;;5042494;28;20056;-52
2023/10/03 02:45:52;;;;;;;27.65;16.83;;;19.20;93.90;;;;;;5042592;28;20018;-52
2023/10/03 02:48:20;;;;;;;32.40;18.00;;;19.10;93.90;;;;;;5042594;28;20080;-52
2023/10/03 02:50:46;;;;;;;25.83;16.67;;;19.10;93.90;;;;;;5042139;28;20501;-52
2023/10/03 02:53:17;;;;;;;30.70;17.02;;;19.10;93.90;;;;;;5026984;28;20034;-52
2023/10/03 02:55:43;;;;;;;26.45;16.60;;;19.10;93.90;;;;;;5027317;28;20025;-52
2023/10/03 02:58:09;;;;;;;24.98;16.75;;;19.00;93.90;;;;;;5042226;28;20080;-52
2023/10/03 03:00:37;;;;;;;24.98;17.33;;;19.10;94.00;;;;;;5042455;28;20053;-52
2023/10/03 03:03:06;;;;;;;27.48;17.23;;;19.10;94.00;;;;;;5042140;28;20438;-52
2023/10/03 03:05:35;;;;;;;23.48;16.83;;;19.10;94.00;;;;;;5026953;28;20026;-52
2023/10/03 03:08:10;;;;;;;28.50;17.15;;;19.10;94.30;;;;;;5026920;28;20040;-52
2023/10/03 03:10:38;;;;;;;28.27;17.35;;;19.20;94.10;;;;;;5041004;28;20026;-52
2023/10/03 03:13:05;;;;;;;28.92;18.13;;;19.00;94.00;;;;;;5025762;28;20109;-52
2023/10/03 03:15:31;;;;;;;27.15;17.77;;;19.00;94.10;;;;;;5042137;28;20528;-52
2023/10/03 03:17:57;;;;;;;27.77;17.55;;;19.00;94.10;;;;;;5026948;28;20113;-52
2023/10/03 03:20:26;;;;;;;23.73;17.02;;;19.00;94.20;;;;;;5026875;28;20033;-52
2023/10/03 03:22:52;;;;;;;24.88;17.08;;;19.00;94.20;;;;;;5026829;28;20033;-52
2023/10/03 03:25:25;;;;;;;24.23;16.05;;;18.90;94.20;;;;;;5041998;28;20029;-52
2023/10/03 03:27:56;;;;;;;24.73;16.15;;;18.90;94.20;;;;;;5040994;28;20042;-51
2023/10/03 03:32:54;;;;;;;27.75;17.42;;;18.90;94.20;;;;;;5040984;28;20093;-52
2023/10/03 03:35:24;;;;;;;26.00;16.35;;;18.90;94.20;;;;;;5041687;28;20030;-52
2023/10/03 03:37:51;;;;;;;26.35;15.45;;;18.90;94.20;;;;;;5026554;28;20025;-52
2023/10/03 03:40:29;;;;;;;23.65;15.68;;;18.90;94.30;;;;;;5025318;28;20040;-52
2023/10/03 03:42:57;;;;;;;22.48;15.75;;;18.90;94.30;;;;;;5040782;28;20045;-52
2023/10/03 03:45:23;;;;;;;23.00;15.75;;;18.80;94.20;;;;;;5041531;28;20032;-52
2023/10/03 03:47:50;;;;;;;22.95;15.90;;;18.80;94.20;;;;;;5026390;28;20086;-52
2023/10/03 03:50:17;;;;;;;24.35;15.65;;;18.80;94.20;;;;;;5041393;28;20022;-52
2023/10/03 03:52:43;;;;;;;25.35;16.52;;;18.80;94.20;;;;;;5041419;28;20482;-52
2023/10/03 03:55:09;;;;;;;28.35;15.10;;;18.80;94.30;;;;;;5025060;28;20030;-52
2023/10/03 03:57:35;;;;;;;24.58;14.88;;;18.80;94.30;;;;;;5026384;28;20026;-52
2023/10/03 04:00:19;;;;;;;23.52;15.57;;;18.80;94.30;;;;;;5024879;28;20026;-52
2023/10/03 04:02:46;;;;;;;26.08;15.68;;;18.80;94.30;;;;;;5039493;28;20129;-52
2023/10/03 04:05:12;;;;;;;23.42;15.45;;;18.80;94.30;;;;;;5042259;28;20030;-52
2023/10/03 04:07:38;;;;;;;25.33;15.90;;;18.80;94.30;;;;;;5045335;28;20397;-52
2023/10/03 04:10:07;;;;;;;23.45;17.17;;;18.70;94.40;;;;;;5030292;28;20072;-52
2023/10/03 04:12:39;;;;;;;27.52;16.90;;;18.70;94.40;;;;;;5028875;28;20037;-52
2023/10/03 04:15:06;;;;;;;22.50;15.50;;;18.70;94.50;;;;;;5044614;28;20030;-52
2023/10/03 04:17:33;;;;;;;26.30;15.23;;;18.70;94.40;;;;;;5045065;28;20029;-52
2023/10/03 04:19:59;;;;;;;24.27;15.43;;;18.70;94.40;;;;;;5045297;28;20036;-52
2023/10/03 04:22:30;;;;;;;23.92;14.60;;;18.70;94.40;;;;;;5045912;28;20033;-52
2023/10/03 04:24:56;;;;;;;27.63;15.65;;;18.70;94.50;;;;;;5029919;28;20030;-52
2023/10/03 04:27:25;;;;;;;23.30;15.52;;;18.60;94.40;;;;;;5029841;28;20127;-52
2023/10/03 04:29:51;;;;;;;25.10;15.25;;;18.60;94.50;;;;;;5028467;28;20030;-52
2023/10/03 04:32:17;;;;;;;23.80;14.95;;;18.60;94.50;;;;;;5028559;28;20030;-52
2023/10/03 04:34:42;;;;;;;26.88;15.73;;;18.60;94.50;;;;;;5028558;28;20082;-51
2023/10/03 04:37:08;;;;;;;22.42;14.52;;;18.60;94.50;;;;;;5029861;28;20033;-52
2023/10/03 04:39:35;;;;;;;22.95;15.00;;;18.60;94.50;;;;;;5044899;28;20052;-52
2023/10/03 04:42:00;;;;;;;23.85;15.52;;;18.60;94.50;;;;;;5044606;28;20504;-52
2023/10/03 04:44:26;;;;;;;20.45;14.50;;;18.60;94.60;;;;;;5044661;28;20030;-52
2023/10/03 04:46:51;;;;;;;22.45;14.13;;;18.60;94.60;;;;;;5061606;28;20033;-52
2023/10/03 04:49:17;;;;;;;25.83;16.38;;;18.50;94.60;;;;;;5030262;28;20033;-52
2023/10/03 04:51:45;;;;;;;21.52;13.68;;;18.50;94.70;;;;;;5029419;28;20026;-52
2023/10/03 04:54:11;;;;;;;23.25;14.07;;;18.50;94.60;;;;;;5044350;28;20030;-52
2023/10/03 04:56:37;;;;;;;20.33;14.27;;;18.50;94.60;;;;;;5029433;28;20037;-52
2023/10/03 04:59:03;;;;;;;22.30;14.65;;;18.40;94.70;;;;;;5027738;28;20470;-53
2023/10/03 05:01:29;;;;;;;21.98;14.25;;;18.40;94.70;;;;;;5028156;28;20034;-52
2023/10/03 05:03:54;;;;;;;22.27;14.68;;;18.40;94.80;;;;;;5044625;28;20105;-52
2023/10/03 05:06:21;;;;;;;21.08;13.93;;;18.40;94.70;;;;;;5044677;28;20123;-52
2023/10/03 05:08:47;;;;;;;22.33;14.40;;;18.40;94.70;;;;;;5029123;28;20030;-52
2023/10/03 05:11:13;;;;;;;19.85;13.80;;;18.40;94.70;;;;;;5044400;28;20045;-52
2023/10/03 05:13:43;;;;;;;23.05;14.18;;;18.40;94.70;;;;;;5029059;28;20073;-52
2023/10/03 05:16:09;;;;;;;22.70;14.60;;;18.40;94.70;;;;;;5043779;28;20060;-50
2023/10/03 05:18:34;;;;;;;21.80;14.48;;;18.40;94.70;;;;;;5027656;28;20066;-52
2023/10/03 05:21:00;;;;;;;20.40;13.50;;;18.30;94.70;;;;;;5027824;28;20470;-52
2023/10/03 05:23:25;;;;;;;20.85;13.63;;;18.30;94.70;;;;;;5029089;28;20109;-52
2023/10/03 05:25:51;;;;;;;19.48;13.00;;;18.30;94.70;;;;;;5044113;28;20022;-52
2023/10/03 05:28:17;;;;;;;19.83;13.30;;;18.30;94.80;;;;;;5027385;28;20061;-52
2023/10/03 05:30:42;;;;;;;25.02;13.63;;;18.30;94.80;;;;;;5028821;28;20029;-52
2023/10/03 05:33:09;;;;;;;20.08;13.65;;;18.30;94.80;;;;;;5027534;28;20052;-52
2023/10/03 05:35:35;;;;;;;24.00;13.98;;;18.30;94.80;;;;;;5028836;28;20018;-52
2023/10/03 05:38:01;;;;;;;18.38;12.82;;;18.30;94.70;;;;;;5043883;28;20049;-52
2023/10/03 05:40:27;;;;;;;19.25;13.48;;;18.30;94.70;;;;;;5043744;28;20022;-52
2023/10/03 05:42:53;;;;;;;20.98;13.05;;;18.30;94.80;;;;;;5043479;28;20034;-52
2023/10/03 05:45:19;;;;;;;19.70;12.68;;;18.20;94.80;;;;;;5028407;28;20053;-52
2023/10/03 05:47:46;;;;;;;19.88;13.30;;;18.20;94.80;;;;;;5043730;28;20046;-52
2023/10/03 05:50:17;;;;;;;23.38;12.70;;;18.20;94.80;;;;;;5028493;28;20030;-52
2023/10/03 05:52:46;;;;;;;24.05;13.50;;;18.20;94.80;;;;;;5043652;28;20084;-52
2023/10/03 05:55:12;;;;;;;19.08;12.18;;;18.20;94.70;;;;;;5043132;28;20462;-52
2023/10/03 05:57:40;;;;;;;20.92;12.68;;;18.20;94.80;;;;;;5043688;28;20037;-52
2023/10/03 06:00:08;;;;;;;18.20;12.00;;;18.20;94.80;;;;;;5028298;28;20026;-52
2023/10/03 06:02:39;;;;;;;20.95;12.43;;;18.20;94.80;;;;;;5028100;28;20034;-52
2023/10/03 06:05:06;;;;;;;21.10;11.95;;;18.20;94.90;;;;;;5043118;28;20045;-52
2023/10/03 06:07:32;;;;;;;20.50;13.20;;;18.10;95.00;;;;;;5026756;28;20466;-52
2023/10/03 06:09:58;;;;;;;20.17;13.40;;;18.10;95.10;;;;;;5025906;28;20068;-52
2023/10/03 06:12:23;;;;;;;18.85;12.13;;;18.10;95.20;;;;;;5026384;28;20026;-52
2023/10/03 06:14:50;;;;;;;24.60;12.30;;;18.10;95.30;;;;;;5024774;28;20537;-52
2023/10/03 06:17:17;;;;;;;22.35;11.88;;;18.00;95.40;;;;;;5009354;28;20021;-52
2023/10/03 06:19:43;;;;;;;20.33;12.65;;;18.00;95.50;;;;;;5027602;28;20104;-52
2023/10/03 06:22:10;;;;;;;18.75;11.73;;;18.00;95.70;;;;;;5026361;28;20042;-52
2023/10/03 06:24:36;;;;;;;19.15;11.57;;;17.90;95.80;;;;;;5026538;28;20037;-52
2023/10/03 06:27:03;;;;;;;20.15;12.35;;;17.90;95.80;;;;;;5026410;28;20050;-52
2023/10/03 06:29:29;;;;;;;21.75;12.77;;;17.90;95.90;;;;;;5026923;28;20049;-52
2023/10/03 06:31:55;;;;;;;21.23;12.05;;;17.90;95.90;;;;;;5027677;28;20029;-51
2023/10/03 06:34:20;;;;;;;24.58;12.30;;;17.90;96.00;;;;;;5027763;28;20052;-52
2023/10/03 06:36:46;;;;;;;23.48;12.27;;;17.90;96.10;;;;;;5026555;28;20434;-52
2023/10/03 06:39:12;;;;;;;24.35;12.35;;;17.90;96.10;;;;;;5027241;28;20462;-52
2023/10/03 06:41:38;;;;;;;21.48;12.23;;;17.90;96.10;;;;;;5026009;28;20108;-52
2023/10/03 06:44:04;;;;;;;23.95;12.75;;;17.90;96.10;;;;;;5025990;28;20092;-52
2023/10/03 06:46:30;;;;;;;23.13;12.07;;;17.90;96.10;;;;;;5027297;28;20033;-52
2023/10/03 06:48:55;;;;;;;25.50;12.90;;;17.90;96.10;;;;;;5022560;28;20032;-52
2023/10/03 06:51:21;;;;;;;32.92;12.95;;;18.00;96.10;;;;;;5025390;28;20045;-52
2023/10/03 06:53:47;;;;;;;26.08;12.68;;;18.00;96.10;;;;;;5039020;28;20436;-52
2023/10/03 06:56:13;;;;;;;21.70;12.95;;;18.00;96.10;;;;;;5031572;28;20034;-52
2023/10/03 06:58:38;;;;;;;22.58;12.45;;;18.00;96.10;;;;;;5025318;28;20022;-52
2023/10/03 07:01:04;;;;;;;35.78;13.23;;;18.00;96.10;;;;;;5038515;28;20041;-52
2023/10/03 07:03:30;;;;;;;36.05;13.35;;;18.00;96.10;;;;;;5030875;28;20041;-52
2023/10/03 07:05:57;;;;;;;40.33;13.68;;;18.00;96.10;;;;;;5065517;28;20041;-52
2023/10/03 07:08:25;;;;;;;39.88;14.35;;;18.00;96.20;;;;;;5028410;28;20026;-52
2023/10/03 07:10:51;;;;;;;35.13;14.73;;;18.00;96.20;;;;;;5025067;28;20018;-52
2023/10/03 07:13:17;;;;;;;35.35;14.10;;;18.00;96.20;;;;;;5026228;28;20105;-52
2023/10/03 07:15:44;;;;;;;42.95;13.27;;;18.00;96.30;;;;;;5026367;28;20033;-52
2023/10/03 07:18:09;;;;;;;39.95;14.88;;;18.10;96.30;;;;;;5005199;28;20040;-52
2023/10/03 07:20:35;;;;;;;34.92;13.38;;;18.10;96.20;;;;;;5036163;28;20378;-52
2023/10/03 07:23:02;;;;;;;41.03;14.38;;;18.10;96.20;;;;;;5031395;28;20037;-52
2023/10/03 07:25:30;;;;;;;34.95;13.48;;;18.10;96.30;;;;;;5005628;28;20391;-52
2023/10/03 07:27:56;;;;;;;32.92;13.73;;;18.10;96.40;;;;;;5021384;28;20040;-52
2023/10/03 07:30:22;;;;;;;45.60;14.05;;;18.10;96.40;;;;;;5032509;28;20049;-52
2023/10/03 07:32:47;;;;;;;41.33;13.90;;;18.10;96.50;;;;;;5018365;28;20026;-52
2023/10/03 07:35:17;;;;;;;46.95;14.52;;;18.10;96.40;;;;;;5015693;28;20032;-52
2023/10/03 07:37:42;;;;;;;43.67;15.07;;;18.20;96.40;;;;;;5017193;28;20437;-52
2023/10/03 07:40:08;;;;;;;62.33;16.90;;;18.20;96.40;;;;;;5034627;28;20556;-52
2023/10/03 07:42:34;;;;;;;81.40;18.15;;;18.20;96.40;;;;;;5019738;28;20038;-52
2023/10/03 07:45:00;;;;;;;75.72;17.60;;;18.20;96.50;;;;;;5020103;28;20040;-52
2023/10/03 07:47:25;;;;;;;72.80;17.70;;;18.20;96.70;;;;;;5051473;28;20034;-52
2023/10/03 07:49:51;;;;;;;64.40;17.13;;;18.20;96.80;;;;;;5010034;28;20033;-52
2023/10/03 07:52:20;;;;;;;54.10;17.08;;;18.20;97.10;;;;;;5017338;28;20113;-52
2023/10/03 07:54:54;;;;;;;80.55;18.20;;;18.20;96.80;;;;;;5032621;28;20052;-52
2023/10/03 07:57:25;;;;;;;48.50;15.73;;;18.30;96.70;;;;;;5021899;28;20452;-52
2023/10/03 07:59:51;;;;;;;58.58;16.10;;;18.30;96.70;;;;;;5022654;28;20025;-53
2023/10/03 08:02:17;;;;;;;51.83;15.75;;;18.30;96.60;;;;;;5018226;28;20031;-52
2023/10/03 08:04:45;;;;;;;71.55;17.27;;;18.30;96.50;;;;;;5044155;28;20022;-52
2023/10/03 08:07:19;;;;;;;70.55;17.38;;;18.30;96.50;;;;;;5023163;28;20088;-52
2023/10/03 08:09:47;;;;;;;100.38;20.25;;;18.30;96.70;;;;;;5053584;28;20107;-52
2023/10/03 08:12:12;;;;;;;87.72;18.52;;;18.30;96.80;;;;;;5016679;28;20037;-52
2023/10/03 08:14:39;;;;;;;94.53;17.40;;;18.30;96.80;;;;;;5019888;28;20113;-52
2023/10/03 08:17:05;;;;;;;74.95;18.63;;;18.40;96.90;;;;;;5018978;28;20108;-52
2023/10/03 08:19:30;;;;;;;70.75;16.83;;;18.40;96.90;;;;;;5021076;28;20026;-52
2023/10/03 08:21:58;;;;;;;80.93;17.38;;;18.40;96.90;;;;;;5024805;28;20086;-52
2023/10/03 08:24:25;;;;;;;60.67;16.27;;;18.40;96.80;;;;;;5031821;28;20088;-52
2023/10/03 08:26:51;;;;;;;61.17;17.17;;;18.40;96.80;;;;;;5038480;28;20098;-52
2023/10/03 08:29:23;;;;;;;57.28;15.63;;;18.40;96.80;;;;;;4994436;28;20030;-52
2023/10/03 08:31:58;;;;;;;60.00;15.75;;;18.50;96.60;;;;;;5018556;28;20089;-52
2023/10/03 08:34:40;;;;;;;57.25;15.20;;;18.50;96.50;;;;;;5026440;28;20026;-52
2023/10/03 08:37:06;;;;;;;60.58;15.55;;;18.60;96.40;;;;;;5022691;28;20026;-52
2023/10/03 08:39:32;;;;;;;55.20;14.32;;;18.60;96.20;;;;;;5049117;28;20508;-52
2023/10/03 08:42:12;;;;;;;43.42;14.23;;;18.70;96.10;;;;;;5020620;28;20052;-53
2023/10/03 08:44:58;;;;;;;49.25;15.45;;;18.70;96.00;;;;;;5053867;28;20168;-52
2023/10/03 08:47:47;;;;;;;52.92;13.55;;;18.70;95.70;;;;;;5032264;28;20069;-52
2023/10/03 08:50:14;;;;;;;63.15;15.38;;;18.80;95.50;;;;;;5028953;28;20050;-52
2023/10/03 08:52:49;;;;;;;49.83;12.98;;;18.80;95.40;;;;;;5007201;28;20029;-52
2023/10/03 08:55:22;;;;;;;;;;;18.80;95.30;;;;;;5025506;28;20033;-52
2023/10/03 08:57:48;;;;;;;44.75;13.38;;;18.80;95.00;;;;;;5057595;28;19920;-52
2023/10/03 09:00:17;;;;;;;41.00;12.52;;;18.80;94.80;;;;;;5041839;28;20030;-52
2023/10/03 09:02:45;;;;;;;39.63;12.07;;;18.80;94.80;;;;;;5051463;28;20041;-51
2023/10/03 09:05:20;;;;;;;33.35;11.73;;;19.00;94.70;;;;;;5023440;28;20029;-52
2023/10/03 09:07:46;;;;;;;45.97;12.95;;;19.00;94.30;;;;;;5027360;28;20072;-52
2023/10/03 09:10:24;;;;;;;39.50;11.95;;;19.00;94.00;;;;;;5024010;28;20478;-52
2023/10/03 09:12:56;;;;;;;38.17;12.00;;;19.10;93.80;;;;;;5052111;28;20493;-51
2023/10/03 09:15:24;;;;;;;42.05;12.20;;;19.10;93.70;;;;;;5039115;28;20056;-52
2023/10/03 09:17:50;;;;;;;62.40;12.82;;;19.10;93.70;;;;;;5039258;28;20038;-52
2023/10/03 09:20:31;;;;;;;53.00;13.30;;;19.20;93.60;;;;;;5026211;28;20022;-52
2023/10/03 09:23:05;;;;;;;43.58;11.00;;;19.20;93.50;;;;;;5031842;28;20061;-52
2023/10/03 09:25:32;;;;;;;56.25;13.15;;;19.20;93.20;;;;;;5035715;28;20025;-51
2023/10/03 09:28:04;;;;;;;65.72;13.07;;;19.30;93.10;;;;;;5027909;28;20061;-51
2023/10/03 09:30:37;;;;;;;59.50;12.30;;;19.30;93.00;;;;;;5023214;28;20065;-52
2023/10/03 09:33:11;;;;;;;66.25;14.60;;;19.40;92.90;;;;;;5025609;28;20045;-52
2023/10/03 09:35:40;;;;;;;63.30;13.23;;;19.40;92.80;;;;;;5027521;28;20098;-52
2023/10/03 09:38:10;;;;;;;69.22;13.60;;;19.40;92.60;;;;;;5032910;28;20439;-52
2023/10/03 09:40:52;;;;;;;58.92;12.32;;;19.50;92.50;;;;;;5009877;28;20636;-52
2023/10/03 09:43:27;;;;;;;60.17;14.15;;;19.50;92.40;;;;;;5026716;28;20034;-52
2023/10/03 09:45:56;;;;;;;71.63;13.98;;;19.50;92.30;;;;;;5007777;28;20028;-51
2023/10/03 09:48:25;;;;;;;77.95;15.10;;;19.60;92.20;;;;;;5023414;28;20117;-52
2023/10/03 09:51:05;;;;;;;90.18;15.60;;;19.70;92.10;;;;;;5052387;28;20089;-52
2023/10/03 09:53:36;;;;;;;97.82;16.40;;;19.70;92.00;;;;;;5026759;28;20033;-52
2023/10/03 09:56:08;;;;;;;110.45;16.02;;;19.70;91.90;;;;;;5023965;28;20057;-52
2023/10/03 09:58:33;;;;;;;104.32;17.42;;;19.70;92.10;;;;;;5029654;28;20475;-52
2023/10/03 10:00:59;;;;;;;113.10;17.17;;;19.80;91.70;;;;;;5047380;28;20168;-52
2023/10/03 10:03:27;;;;;;;99.70;18.98;;;19.80;91.60;;;;;;5024325;28;20046;-52
2023/10/03 10:06:22;;;;;;;104.80;18.17;;;19.90;91.60;;;;;;5025787;28;20026;-52
2023/10/03 10:09:13;;;;;;;110.05;17.98;;;19.90;91.50;;;;;;5027313;28;20032;-52
2023/10/03 10:12:19;;;;;;;86.68;16.35;;;19.90;91.30;;;;;;5025649;28;20470;-52
2023/10/03 10:15:00;;;;;;;84.45;16.25;;;20.00;91.30;;;;;;5022726;28;20022;-52
2023/10/03 10:17:44;;;;;;;84.20;16.60;;;20.00;91.20;;;;;;5032144;28;20045;-52
2023/10/03 10:20:38;;;;;;;134.90;19.55;;;20.10;91.20;;;;;;5016389;28;20042;-52
2023/10/03 10:25:41;;;;;;;90.40;15.98;;;20.10;91.00;;;;;;5022582;28;20038;-53
2023/10/03 10:28:08;;;;;;;104.40;16.42;;;20.20;90.60;;;;;;5024871;28;20541;-52
2023/10/03 10:30:34;;;;;;;91.47;15.55;;;20.30;90.30;;;;;;5028171;28;20033;-52
2023/10/03 10:33:16;;;;;;;102.25;17.30;;;20.30;90.50;;;;;;4990968;28;20042;-52
2023/10/03 10:36:00;;;;;;;235.85;30.63;;;20.40;90.20;;;;;;5027024;28;20037;-52
2023/10/03 10:38:31;;;;;;;76.00;14.90;;;20.40;90.10;;;;;;5030918;28;20026;-52
2023/10/03 10:41:22;;;;;;;89.35;15.52;;;20.50;90.10;;;;;;5024762;28;20029;-52
2023/10/03 10:44:21;;;;;;;98.68;16.23;;;20.50;90.00;;;;;;5032399;28;20038;-52
2023/10/03 10:46:49;;;;;;;81.63;15.50;;;20.50;89.90;;;;;;5024773;28;20032;-52
2023/10/03 10:49:30;;;;;;;76.70;15.55;;;20.60;89.80;;;;;;5025893;28;20034;-52
2023/10/03 10:51:57;;;;;;;84.38;14.82;;;20.60;89.70;;;;;;5022547;28;20029;-52
2023/10/03 10:54:24;;;;;;;96.22;14.85;;;20.70;89.40;;;;;;5013068;28;20137;-52
2023/10/03 10:57:00;;;;;;;91.78;16.55;;;20.70;89.40;;;;;;5025059;28;20061;-52
2023/10/03 10:59:31;;;;;;;81.88;14.55;;;20.70;89.20;;;;;;5022500;28;20088;-52
2023/10/03 11:01:58;;;;;;;63.00;11.85;;;20.80;89.20;;;;;;5023759;28;20482;-52
2023/10/03 11:04:24;;;;;;;48.97;11.55;;;20.80;89.00;;;;;;5060207;28;20038;-52
2023/10/03 11:06:52;;;;;;;53.78;11.77;;;20.90;88.70;;;;;;5020598;28;20033;-52
2023/10/03 11:09:20;;;;;;;76.97;11.93;;;20.90;88.50;;;;;;5038225;28;20109;-52
2023/10/03 11:11:46;;;;;;;68.40;12.02;;;20.90;88.40;;;;;;5057712;28;20037;-52
2023/10/03 11:14:12;;;;;;;60.90;11.63;;;20.90;88.10;;;;;;5041049;28;20030;-52
2023/10/03 11:16:38;;;;;;;52.95;10.77;;;21.00;87.90;;;;;;5041623;28;20049;-52
2023/10/03 11:19:04;;;;;;;49.42;11.35;;;21.00;87.60;;;;;;5040127;28;20033;-52
2023/10/03 11:21:30;;;;;;;38.92;10.30;;;21.00;87.30;;;;;;5049929;28;20057;-52
2023/10/03 11:24:18;;;;;;;50.05;10.02;;;21.10;87.20;;;;;;5024136;28;20030;-52
2023/10/03 11:26:55;;;;;;;36.40;9.32;;;21.10;86.90;;;;;;5021501;28;20034;-50
2023/10/03 11:29:45;;;;;;;39.55;9.07;;;21.10;86.60;;;;;;5022509;28;20036;-52
2023/10/03 11:32:29;;;;;;;42.47;9.15;;;21.20;86.50;;;;;;5026203;28;20037;-52
2023/10/03 11:34:56;;;;;;;44.15;9.38;;;21.20;86.00;;;;;;5005135;28;20026;-52
2023/10/03 11:37:44;;;;;;;37.25;9.07;;;21.30;85.60;;;;;;5036231;28;20041;-52
2023/10/03 11:40:11;;;;;;;32.88;8.52;;;21.40;85.40;;;;;;5054228;28;20382;-52
2023/10/03 11:42:59;;;;;;;26.25;8.15;;;21.40;85.00;;;;;;5026818;28;20093;-52
2023/10/03 11:45:28;;;;;;;30.08;8.23;;;21.40;84.80;;;;;;5055222;28;20105;-52
2023/10/03 11:48:01;;;;;;;24.42;7.45;;;21.50;84.60;;;;;;5024313;28;20026;-52
2023/10/03 11:50:27;;;;;;;30.17;6.78;;;21.50;84.30;;;;;;5016564;28;20037;-52
2023/10/03 11:52:56;;;;;;;32.33;8.18;;;21.60;83.90;;;;;;5006944;28;20041;-52
2023/10/03 11:55:22;;;;;;;26.25;6.95;;;21.70;83.60;;;;;;5025171;28;20030;-52
2023/10/03 11:57:48;;;;;;;30.17;6.68;;;21.70;83.50;;;;;;5025186;28;20052;-52
2023/10/03 12:00:16;;;;;;;24.80;6.82;;;21.80;83.10;;;;;;5023564;28;20077;-52
2023/10/03 12:02:46;;;;;;;24.17;6.80;;;21.90;83.10;;;;;;5019088;28;20056;-52
2023/10/03 12:05:14;;;;;;;36.72;6.88;;;21.90;82.90;;;;;;5020291;28;20044;-52
2023/10/03 12:07:41;;;;;;;25.58;6.85;;;21.90;82.70;;;;;;5023147;28;20034;-52
2023/10/03 12:10:12;;;;;;;25.10;6.47;;;22.00;82.60;;;;;;5016243;28;20022;-52
2023/10/03 12:12:38;;;;;;;22.40;7.13;;;22.00;82.50;;;;;;5014973;28;20042;-52
2023/10/03 12:15:07;;;;;;;15.07;6.22;;;22.10;82.50;;;;;;5020600;28;20018;-52
2023/10/03 12:17:33;;;;;;;20.15;6.88;;;22.10;82.60;;;;;;5037322;28;20084;-52
2023/10/03 12:19:58;;;;;;;24.15;6.32;;;22.20;82.40;;;;;;5022402;28;20026;-52
2023/10/03 12:22:24;;;;;;;21.15;5.70;;;22.20;82.10;;;;;;5011091;28;20425;-52
2023/10/03 12:24:51;;;;;;;20.08;6.00;;;22.30;82.00;;;;;;5022209;28;20048;-52
2023/10/03 12:27:17;;;;;;;25.65;6.13;;;22.30;81.90;;;;;;5018511;28;20233;-52
2023/10/03 12:29:43;;;;;;;18.67;5.75;;;22.30;81.80;;;;;;5036470;28;20363;-52
2023/10/03 12:32:09;;;;;;;17.67;5.78;;;22.40;81.70;;;;;;5045173;28;20333;-52
2023/10/03 12:34:34;;;;;;;21.58;6.22;;;22.40;81.70;;;;;;5021023;28;20064;-52
2023/10/03 12:37:03;;;;;;;18.95;5.35;;;22.40;81.60;;;;;;5042703;28;20034;-52
2023/10/03 12:39:31;;;;;;;24.20;5.93;;;22.50;81.40;;;;;;5026441;28;20021;-52
2023/10/03 12:41:56;;;;;;;25.70;6.60;;;22.60;81.40;;;;;;5034521;28;20033;-52
2023/10/03 12:44:22;;;;;;;26.00;5.95;;;22.60;81.40;;;;;;5043515;28;20034;-52